createdAt,value
2024-01-07T00:00:34.553Z,97660.38
2024-01-07T00:01:36.202Z,97645.06
2024-01-07T00:02:38.519Z,97664.03
2024-01-07T00:03:42.114Z,97647.88
2024-01-07T00:04:43.661Z,97665.69
2024-01-07T00:05:45.243Z,97656.66
2024-01-07T00:06:48.368Z,97649.53
2024-01-07T00:07:51.795Z,97659.47
2024-01-07T00:08:53.326Z,97655.75
2024-01-07T00:09:55.124Z,97664.84
2024-01-07T00:10:57.957Z,97654.31
2024-01-07T00:11:59.868Z,97646.09
2024-01-07T00:13:01.790Z,97659.13
2024-01-07T00:14:03.466Z,97623.53
2024-01-07T00:15:05.256Z,97671.50
2024-01-07T00:16:07.106Z,97668.94
2024-01-07T00:17:09.169Z,97664.03
2024-01-07T00:18:10.950Z,97644.34
2024-01-07T00:19:12.613Z,97671.16
2024-01-07T00:20:14.265Z,97663.22
2024-01-07T00:21:15.767Z,97657.69
2024-01-07T00:22:17.577Z,97667.63
2024-01-07T00:23:19.456Z,97669.06
2024-01-07T00:24:21.021Z,97657.69
2024-01-07T00:25:22.968Z,97674.44
2024-01-07T00:26:24.560Z,97671.75
2024-01-07T00:27:26.379Z,97653.38
2024-01-07T00:28:28.074Z,97655.00
2024-01-07T00:29:29.565Z,97664.84
2024-01-07T00:30:31.123Z,97664.03
2024-01-07T00:31:32.736Z,97667.75
2024-01-07T00:32:34.374Z,97657.69
2024-01-07T00:33:36.193Z,97674.44
2024-01-07T00:34:37.829Z,97652.06
2024-01-07T00:35:39.367Z,97651.16
2024-01-07T00:36:40.898Z,97661.34
2024-01-07T00:37:42.977Z,97647.97
2024-01-07T00:38:44.472Z,97628.81
2024-01-07T00:39:47.048Z,97646.25
2024-01-07T00:40:48.651Z,97643.19
2024-01-07T00:41:50.144Z,97666.25
2024-01-07T00:42:52.624Z,97662.50
2024-01-07T00:43:54.189Z,97673.25
2024-01-07T00:44:55.753Z,97671.75
2024-01-07T00:45:57.311Z,97658.41
2024-01-07T00:46:59.156Z,97659.56
2024-01-07T00:48:00.706Z,97666.00
2024-01-07T00:49:02.374Z,97681.06
2024-01-07T00:50:04.191Z,97669.25
2024-01-07T00:51:05.714Z,97664.94
2024-01-07T00:52:07.249Z,97659.44
2024-01-07T00:53:09.149Z,97673.13
2024-01-07T00:54:10.687Z,97679.72
2024-01-07T00:55:12.191Z,97654.88
2024-01-07T00:56:13.727Z,97670.44
2024-01-07T00:57:15.566Z,97681.91
2024-01-07T00:58:17.880Z,97684.38
2024-01-07T00:59:19.652Z,97671.16
2024-01-07T01:00:21.613Z,97675.69
2024-01-07T01:01:23.205Z,97675.47
2024-01-07T01:02:25.193Z,97633.66
2024-01-07T01:03:27.604Z,97683.31
2024-01-07T01:04:29.243Z,97677.69
2024-01-07T01:05:30.831Z,97684.00
2024-01-07T01:06:32.372Z,97675.38
2024-01-07T01:07:34.421Z,97679.34
2024-01-07T01:08:35.895Z,97683.09
2024-01-07T01:09:37.456Z,97680.25
2024-01-07T01:10:39.046Z,97659.78
2024-01-07T01:11:40.525Z,97688.69
2024-01-07T01:12:42.414Z,97675.81
2024-01-07T01:13:44.013Z,97685.53
2024-01-07T01:14:45.557Z,97669.63
2024-01-07T01:15:47.140Z,97676.19
2024-01-07T01:16:48.667Z,97681.00
2024-01-07T01:17:50.246Z,97648.09
2024-01-07T01:18:52.014Z,97673.25
2024-01-07T01:19:53.700Z,97676.75
2024-01-07T01:20:57.048Z,97687.88
2024-01-07T01:21:58.628Z,97664.69
2024-01-07T01:23:00.161Z,97694.69
2024-01-07T01:24:01.818Z,97687.28
2024-01-07T01:25:04.583Z,97689.75
2024-01-07T01:26:06.114Z,97686.38
2024-01-07T01:27:07.625Z,97682.13
2024-01-07T01:28:09.312Z,97688.47
2024-01-07T01:29:10.822Z,97670.81
2024-01-07T01:30:12.830Z,97695.91
2024-01-07T01:31:15.868Z,97675.00
2024-01-07T01:32:17.459Z,97694.44
2024-01-07T01:33:19.380Z,97678.63
2024-01-07T01:34:21.017Z,97694.69
2024-01-07T01:35:22.553Z,97693.84
2024-01-07T01:36:24.254Z,97685.78
2024-01-07T01:37:25.811Z,97692.50
2024-01-07T01:38:27.547Z,97693.19
2024-01-07T01:39:30.004Z,97684.94
2024-01-07T01:40:32.379Z,97703.44
2024-01-07T01:41:34.556Z,97694.91
2024-01-07T01:42:36.177Z,97685.31
2024-01-07T01:43:37.759Z,97702.16
2024-01-07T01:44:39.481Z,97683.06
2024-01-07T01:45:41.257Z,97687.97
2024-01-07T01:46:42.737Z,97673.91
2024-01-07T01:47:45.001Z,97697.34
2024-01-07T01:48:47.035Z,97698.38
2024-01-07T01:49:48.949Z,97690.06
2024-01-07T01:50:50.755Z,97700.38
2024-01-07T01:51:54.127Z,97696.88
2024-01-07T01:52:57.350Z,97695.00
2024-01-07T01:54:00.101Z,97694.41
2024-01-07T01:55:01.863Z,97700.38
2024-01-07T01:56:03.825Z,97683.69
2024-01-07T01:57:06.149Z,97701.94
2024-01-07T01:58:10.133Z,97699.19
2024-01-07T01:59:13.227Z,97704.94
2024-01-07T02:00:14.986Z,97701.88
2024-01-07T02:01:16.599Z,97702.25
2024-01-07T02:02:18.262Z,97680.69
2024-01-07T02:03:20.029Z,97705.75
2024-01-07T02:04:21.960Z,97706.09
2024-01-07T02:05:23.643Z,97700.81
2024-01-07T02:06:25.501Z,97710.06
2024-01-07T02:07:27.279Z,97714.38
2024-01-07T02:08:28.856Z,97712.28
2024-01-07T02:09:30.353Z,97711.47
2024-01-07T02:10:35.621Z,97706.53
2024-01-07T02:11:37.339Z,97702.91
2024-01-07T02:12:38.930Z,97705.88
2024-01-07T02:13:40.754Z,97703.63
2024-01-07T02:14:42.239Z,97706.59
2024-01-07T02:15:44.682Z,97706.91
2024-01-07T02:16:46.220Z,97675.81
2024-01-07T02:17:47.875Z,97699.88
2024-01-07T02:18:49.809Z,97708.56
2024-01-07T02:19:51.493Z,97700.72
2024-01-07T02:20:53.101Z,97715.56
2024-01-07T02:21:54.606Z,97713.94
2024-01-07T02:22:58.658Z,97709.00
2024-01-07T02:24:05.645Z,97707.25
2024-01-07T02:25:08.092Z,97713.56
2024-01-07T02:26:09.817Z,97703.28
2024-01-07T02:27:11.531Z,97707.84
2024-01-07T02:28:13.204Z,97713.81
2024-01-07T02:29:15.065Z,97712.75
2024-01-07T02:30:16.628Z,97707.38
2024-01-07T02:31:18.296Z,97701.97
2024-01-07T02:32:19.862Z,97717.22
2024-01-07T02:33:21.833Z,97717.66
2024-01-07T02:34:23.499Z,97713.03
2024-01-07T02:35:25.219Z,97708.69
2024-01-07T02:36:26.770Z,97723.53
2024-01-07T02:37:28.363Z,97718.84
2024-01-07T02:38:30.196Z,97713.47
2024-01-07T02:39:31.751Z,97728.47
2024-01-07T02:40:33.354Z,97729.50
2024-01-07T02:41:34.945Z,97728.69
2024-01-07T02:42:36.499Z,97715.56
2024-01-07T02:43:39.990Z,97723.19
2024-01-07T02:44:41.557Z,97724.31
2024-01-07T02:45:43.163Z,97721.50
2024-01-07T02:46:44.716Z,97731.34
2024-01-07T02:47:46.272Z,97730.66
2024-01-07T02:48:48.206Z,97726.44
2024-01-07T02:49:49.941Z,97723.84
2024-01-07T02:50:51.502Z,97721.97
2024-01-07T02:51:53.080Z,97728.88
2024-01-07T02:52:54.618Z,97726.28
2024-01-07T02:53:56.322Z,97725.47
2024-01-07T02:54:58.591Z,97703.94
2024-01-07T02:56:00.579Z,97713.63
2024-01-07T02:57:02.554Z,97726.69
2024-01-07T02:58:04.350Z,97726.25
2024-01-07T02:59:06.404Z,97717.91
2024-01-07T03:00:08.914Z,97727.63
2024-01-07T03:01:11.318Z,97719.19
2024-01-07T03:02:13.103Z,97719.69
2024-01-07T03:03:14.821Z,97723.56
2024-01-07T03:04:17.459Z,97710.03
2024-01-07T03:05:19.582Z,97726.16
2024-01-07T03:06:21.111Z,97721.97
2024-01-07T03:07:22.709Z,97725.22
2024-01-07T03:08:24.266Z,97723.53
2024-01-07T03:09:26.508Z,97716.94
2024-01-07T03:10:28.035Z,97728.41
2024-01-07T03:11:30.665Z,97724.63
2024-01-07T03:12:32.219Z,97731.25
2024-01-07T03:13:34.953Z,97727.97
2024-01-07T03:14:37.008Z,97723.78
2024-01-07T03:15:39.344Z,97725.88
2024-01-07T03:16:40.914Z,97729.16
2024-01-07T03:17:42.603Z,97729.50
2024-01-07T03:18:44.229Z,97720.50
2024-01-07T03:19:45.976Z,97721.56
2024-01-07T03:20:47.562Z,97736.78
2024-01-07T03:21:52.275Z,97732.91
2024-01-07T03:22:54.386Z,97735.28
2024-01-07T03:23:56.218Z,97731.09
2024-01-07T03:24:57.716Z,97734.81
2024-01-07T03:25:59.545Z,97718.94
2024-01-07T03:27:01.200Z,97736.16
2024-01-07T03:28:02.795Z,97736.41
2024-01-07T03:29:04.376Z,97737.28
2024-01-07T03:30:06.673Z,97723.84
2024-01-07T03:31:10.418Z,97739.97
2024-01-07T03:32:12.057Z,97725.41
2024-01-07T03:33:13.633Z,97744.47
2024-01-07T03:34:15.644Z,97730.88
2024-01-07T03:35:17.667Z,97736.25
2024-01-07T03:36:19.183Z,97728.84
2024-01-07T03:37:20.721Z,97739.44
2024-01-07T03:38:22.228Z,97737.72
2024-01-07T03:39:24.320Z,97738.81
2024-01-07T03:40:25.866Z,97737.31
2024-01-07T03:41:27.380Z,97746.94
2024-01-07T03:42:28.926Z,97744.69
2024-01-07T03:43:30.755Z,97747.16
2024-01-07T03:44:32.777Z,97734.97
2024-01-07T03:45:34.375Z,97731.25
2024-01-07T03:46:35.960Z,97732.59
2024-01-07T03:47:37.596Z,97749.03
2024-01-07T03:48:39.473Z,97745.72
2024-01-07T03:49:41.161Z,97747.81
2024-01-07T03:50:42.701Z,97752.59
2024-01-07T03:51:44.578Z,97749.91
2024-01-07T03:52:46.081Z,97750.94
2024-01-07T03:53:47.580Z,97752.69
2024-01-07T03:54:49.519Z,97748.34
2024-01-07T03:55:51.058Z,97740.97
2024-01-07T03:56:52.606Z,97755.44
2024-01-07T03:57:54.299Z,97758.56
2024-01-07T03:58:55.840Z,97762.75
2024-01-07T03:59:57.383Z,97755.88
2024-01-07T04:00:58.973Z,97751.56
2024-01-07T04:02:00.560Z,97760.06
2024-01-07T04:03:02.363Z,97752.53
2024-01-07T04:04:04.065Z,97763.19
2024-01-07T04:05:05.909Z,97763.94
2024-01-07T04:06:09.005Z,97771.84
2024-01-07T04:07:10.726Z,97751.16
2024-01-07T04:08:13.055Z,97772.78
2024-01-07T04:09:14.756Z,97783.47
2024-01-07T04:10:17.799Z,97784.84
2024-01-07T04:11:19.377Z,97766.28
2024-01-07T04:12:20.856Z,97771.00
2024-01-07T04:13:22.390Z,97777.78
2024-01-07T04:14:23.929Z,97771.16
2024-01-07T04:15:25.516Z,97768.38
2024-01-07T04:16:28.412Z,97780.19
2024-01-07T04:17:29.908Z,97782.13
2024-01-07T04:18:31.650Z,97787.94
2024-01-07T04:19:33.773Z,97772.50
2024-01-07T04:20:35.336Z,97780.34
2024-01-07T04:21:37.006Z,97786.16
2024-01-07T04:22:38.664Z,97792.16
2024-01-07T04:23:41.656Z,97779.75
2024-01-07T04:24:43.322Z,97790.22
2024-01-07T04:25:46.226Z,97795.03
2024-01-07T04:26:47.723Z,97792.47
2024-01-07T04:27:49.228Z,97786.16
2024-01-07T04:28:50.889Z,97796.16
2024-01-07T04:29:52.619Z,97797.06
2024-01-07T04:30:54.219Z,97794.25
2024-01-07T04:31:55.859Z,97802.66
2024-01-07T04:32:57.411Z,97801.97
2024-01-07T04:33:59.005Z,97807.53
2024-01-07T04:35:01.052Z,97809.06
2024-01-07T04:36:02.598Z,97814.34
2024-01-07T04:37:04.384Z,97813.50
2024-01-07T04:38:05.902Z,97814.25
2024-01-07T04:39:07.812Z,97812.34
2024-01-07T04:40:10.365Z,97808.25
2024-01-07T04:41:12.019Z,97799.31
2024-01-07T04:42:14.473Z,97813.94
2024-01-07T04:43:16.018Z,97812.25
2024-01-07T04:44:17.581Z,97814.03
2024-01-07T04:45:19.473Z,97803.81
2024-01-07T04:46:21.275Z,97811.56
2024-01-07T04:47:32.942Z,97821.66
2024-01-07T04:48:34.549Z,97824.44
2024-01-07T04:49:36.169Z,97814.22
2024-01-07T04:50:38.496Z,97814.22
2024-01-07T04:51:40.163Z,97830.25
2024-01-07T04:52:41.781Z,97817.72
2024-01-07T04:53:43.285Z,97829.81
2024-01-07T04:54:44.837Z,97836.41
2024-01-07T04:55:46.725Z,97821.16
2024-01-07T04:56:48.226Z,97814.44
2024-01-07T04:57:49.822Z,97831.63
2024-01-07T04:58:51.384Z,97840.50
2024-01-07T04:59:53.652Z,97841.78
2024-01-07T05:00:55.414Z,97844.06
2024-01-07T05:01:57.544Z,97834.59
2024-01-07T05:02:59.222Z,97835.94
2024-01-07T05:04:01.412Z,97847.00
2024-01-07T05:05:02.989Z,97846.69
2024-01-07T05:06:05.618Z,97835.22
2024-01-07T05:07:07.179Z,97849.44
2024-01-07T05:08:08.687Z,97846.78
2024-01-07T05:09:10.474Z,97846.34
2024-01-07T05:10:12.098Z,97853.97
2024-01-07T05:11:14.038Z,97840.59
2024-01-07T05:12:15.574Z,97854.69
2024-01-07T05:13:17.193Z,97847.81
2024-01-07T05:14:18.800Z,97872.97
2024-01-07T05:15:20.301Z,97852.53
2024-01-07T05:16:22.092Z,97847.09
2024-01-07T05:17:23.693Z,97864.00
2024-01-07T05:18:25.900Z,97866.28
2024-01-07T05:19:27.678Z,97868.28
2024-01-07T05:20:29.235Z,97869.69
2024-01-07T05:21:31.273Z,97869.06
2024-01-07T05:22:32.770Z,97868.66
2024-01-07T05:23:34.284Z,97876.13
2024-01-07T05:24:39.268Z,97879.16
2024-01-07T05:25:41.035Z,97877.28
2024-01-07T05:26:44.264Z,97877.28
2024-01-07T05:27:45.765Z,97878.47
2024-01-07T05:28:47.263Z,97878.47
2024-01-07T05:29:48.833Z,97874.38
2024-01-07T05:30:50.882Z,97886.66
2024-01-07T05:31:52.469Z,97883.16
2024-01-07T05:32:54.139Z,97873.25
2024-01-07T05:33:55.825Z,97877.19
2024-01-07T05:34:57.439Z,97879.09
2024-01-07T05:35:59.417Z,97890.00
2024-01-07T05:37:00.929Z,97883.28
2024-01-07T05:38:02.564Z,97878.47
2024-01-07T05:39:04.389Z,97875.78
2024-01-07T05:40:07.450Z,97894.94
2024-01-07T05:41:09.188Z,97895.75
2024-01-07T05:42:10.729Z,97898.63
2024-01-07T05:43:12.284Z,97886.66
2024-01-07T05:44:13.944Z,97895.72
2024-01-07T05:45:15.672Z,97899.03
2024-01-07T05:46:18.428Z,97895.38
2024-01-07T05:47:19.958Z,97899.47
2024-01-07T05:48:24.701Z,97889.63
2024-01-07T05:49:26.390Z,97897.19
2024-01-07T05:50:28.519Z,97891.47
2024-01-07T05:51:30.053Z,97885.50
2024-01-07T05:52:31.600Z,97905.91
2024-01-07T05:53:33.159Z,97903.22
2024-01-07T05:54:34.719Z,97901.31
2024-01-07T05:55:36.849Z,97904.41
2024-01-07T05:56:41.670Z,97905.88
2024-01-07T05:57:44.571Z,97897.59
2024-01-07T05:58:46.109Z,97904.06
2024-01-07T05:59:47.997Z,97898.69
2024-01-07T06:00:50.910Z,97902.81
2024-01-07T06:01:52.605Z,97892.63
2024-01-07T06:02:54.172Z,97901.84
2024-01-07T06:03:55.816Z,97896.44
2024-01-07T06:04:57.507Z,97901.16
2024-01-07T06:05:59.706Z,97894.16
2024-01-07T06:07:01.337Z,97909.81
2024-01-07T06:08:03.044Z,97904.00
2024-01-07T06:09:05.400Z,97901.94
2024-01-07T06:10:09.767Z,97915.56
2024-01-07T06:11:19.684Z,97907.31
2024-01-07T06:12:21.204Z,97910.59
2024-01-07T06:13:22.725Z,97909.38
2024-01-07T06:14:24.282Z,97913.91
2024-01-07T06:15:25.964Z,97911.69
2024-01-07T06:16:27.584Z,97914.38
2024-01-07T06:17:29.155Z,97900.41
2024-01-07T06:18:30.886Z,97906.59
2024-01-07T06:19:32.667Z,97915.22
2024-01-07T06:20:34.241Z,97907.22
2024-01-07T06:21:35.840Z,97908.41
2024-01-07T06:22:37.458Z,97907.22
2024-01-07T06:23:38.925Z,97916.28
2024-01-07T06:24:40.499Z,97924.34
2024-01-07T06:25:42.089Z,97922.22
2024-01-07T06:26:44.254Z,97917.41
2024-01-07T06:27:45.785Z,97931.56
2024-01-07T06:28:47.296Z,97937.38
2024-01-07T06:29:48.784Z,97917.19
2024-01-07T06:30:50.343Z,97927.44
2024-01-07T06:31:52.028Z,97930.78
2024-01-07T06:32:54.150Z,97925.88
2024-01-07T06:33:57.289Z,97932.03
2024-01-07T06:34:59.474Z,97937.19
2024-01-07T06:36:01.620Z,97918.63
2024-01-07T06:37:03.545Z,97930.97
2024-01-07T06:38:05.458Z,97927.22
2024-01-07T06:39:06.973Z,97932.53
2024-01-07T06:40:09.008Z,97929.28
2024-01-07T06:41:11.633Z,97930.88
2024-01-07T06:42:13.232Z,97924.94
2024-01-07T06:43:14.968Z,97922.47
2024-01-07T06:44:16.639Z,97932.53
2024-01-07T06:45:18.596Z,97929.63
2024-01-07T06:46:20.149Z,97931.31
2024-01-07T06:47:22.145Z,97932.53
2024-01-07T06:48:23.782Z,97945.03
2024-01-07T06:49:25.473Z,97944.19
2024-01-07T06:50:27.057Z,97937.16
2024-01-07T06:51:28.668Z,97947.06
2024-01-07T06:52:30.518Z,97949.97
2024-01-07T06:53:32.078Z,97939.59
2024-01-07T06:54:34.284Z,97949.91
2024-01-07T06:55:35.783Z,97942.84
2024-01-07T06:56:37.363Z,97952.34
2024-01-07T06:57:39.204Z,97945.00
2024-01-07T06:58:41.622Z,97944.22
2024-01-07T06:59:43.177Z,97948.31
2024-01-07T07:00:44.821Z,97938.47
2024-01-07T07:01:46.691Z,97942.00
2024-01-07T07:02:48.722Z,97942.41
2024-01-07T07:03:51.062Z,97952.50
2024-01-07T07:04:52.758Z,97958.44
2024-01-07T07:05:54.458Z,97958.22
2024-01-07T07:06:56.873Z,97960.47
2024-01-07T07:07:58.784Z,97949.97
2024-01-07T07:09:00.255Z,97960.31
2024-01-07T07:10:02.097Z,97946.69
2024-01-07T07:11:03.662Z,97959.88
2024-01-07T07:12:05.535Z,97952.06
2024-01-07T07:13:07.131Z,97957.19
2024-01-07T07:14:08.710Z,97936.06
2024-01-07T07:15:10.945Z,97935.63
2024-01-07T07:16:13.344Z,97947.59
2024-01-07T07:17:15.870Z,97960.72
2024-01-07T07:18:17.467Z,97960.72
2024-01-07T07:19:19.210Z,97968.56
2024-01-07T07:20:20.934Z,97957.47
2024-01-07T07:21:22.508Z,97969.78
2024-01-07T07:22:24.097Z,97952.47
2024-01-07T07:23:25.944Z,97974.34
2024-01-07T07:24:27.484Z,97968.00
2024-01-07T07:25:29.011Z,97955.19
2024-01-07T07:26:30.714Z,97968.78
2024-01-07T07:27:32.273Z,97957.88
2024-01-07T07:28:34.076Z,97966.13
2024-01-07T07:29:35.902Z,97955.19
2024-01-07T07:30:37.551Z,97974.13
2024-01-07T07:31:39.280Z,97960.97
2024-01-07T07:32:42.738Z,97967.75
2024-01-07T07:33:44.572Z,97983.63
2024-01-07T07:34:48.173Z,97989.22
2024-01-07T07:35:49.774Z,97992.72
2024-01-07T07:36:51.334Z,97987.56
2024-01-07T07:37:52.866Z,97997.03
2024-01-07T07:38:54.718Z,97992.94
2024-01-07T07:39:56.355Z,98000.16
2024-01-07T07:40:57.973Z,98013.53
2024-01-07T07:41:59.906Z,97992.69
2024-01-07T07:43:01.482Z,97994.75
2024-01-07T07:44:03.340Z,98005.47
2024-01-07T07:45:05.422Z,97996.63
2024-01-07T07:46:07.030Z,98012.72
2024-01-07T07:47:09.125Z,98014.97
2024-01-07T07:48:10.665Z,98001.78
2024-01-07T07:49:12.516Z,97991.28
2024-01-07T07:50:14.313Z,98011.03
2024-01-07T07:51:16.056Z,98010.25
2024-01-07T07:52:22.986Z,97989.44
2024-01-07T07:53:24.555Z,97999.94
2024-01-07T07:54:26.086Z,98001.38
2024-01-07T07:55:28.266Z,98009.63
2024-01-07T07:56:30.151Z,98007.78
2024-01-07T07:57:31.718Z,98004.03
2024-01-07T07:58:33.340Z,98019.72
2024-01-07T07:59:34.848Z,98020.97
2024-01-07T08:00:36.472Z,98019.91
2024-01-07T08:01:38.683Z,98027.38
2024-01-07T08:02:40.839Z,98024.03
2024-01-07T08:03:42.463Z,98025.50
2024-01-07T08:04:44.621Z,98033.13
2024-01-07T08:05:46.345Z,98011.69
2024-01-07T08:06:48.023Z,98004.25
2024-01-07T08:07:49.902Z,98033.31
2024-01-07T08:08:51.506Z,98032.47
2024-01-07T08:09:53.095Z,98045.91
2024-01-07T08:10:55.243Z,98036.19
2024-01-07T08:11:56.750Z,98041.13
2024-01-07T08:12:58.409Z,98043.84
2024-01-07T08:14:00.165Z,98046.06
2024-01-07T08:15:01.751Z,98038.25
2024-01-07T08:16:03.508Z,98045.88
2024-01-07T08:17:05.846Z,98052.91
2024-01-07T08:18:08.424Z,98049.81
2024-01-07T08:19:10.172Z,98028.78
2024-01-07T08:20:12.394Z,98045.25
2024-01-07T08:21:13.927Z,98052.25
2024-01-07T08:22:15.621Z,98048.78
2024-01-07T08:23:17.635Z,98047.31
2024-01-07T08:24:19.176Z,98056.19
2024-01-07T08:25:20.860Z,98059.22
2024-01-07T08:26:22.644Z,98052.22
2024-01-07T08:27:24.218Z,98046.06
2024-01-07T08:28:25.831Z,98022.59
2024-01-07T08:29:27.637Z,98051.22
2024-01-07T08:30:29.225Z,98046.91
2024-01-07T08:31:31.435Z,98063.81
2024-01-07T08:32:33.062Z,98063.81
2024-01-07T08:33:35.386Z,98061.31
2024-01-07T08:34:37.363Z,98062.56
2024-01-07T08:35:38.920Z,98065.06
2024-01-07T08:36:40.485Z,98071.41
2024-01-07T08:37:42.241Z,98060.91
2024-01-07T08:38:44.303Z,98070.22
2024-01-07T08:39:45.915Z,98074.25
2024-01-07T08:40:47.430Z,98069.16
2024-01-07T08:41:48.959Z,98067.09
2024-01-07T08:42:50.471Z,98063.56
2024-01-07T08:43:52.511Z,98060.06
2024-01-07T08:44:53.986Z,98066.66
2024-01-07T08:45:55.521Z,98064.19
2024-01-07T08:46:57.027Z,98060.50
2024-01-07T08:47:58.679Z,98068.94
2024-01-07T08:49:00.550Z,98078.84
2024-01-07T08:50:02.373Z,98071.00
2024-01-07T08:51:04.506Z,98080.69
2024-01-07T08:52:06.468Z,98059.88
2024-01-07T08:53:07.978Z,98083.59
2024-01-07T08:54:09.906Z,98078.66
2024-01-07T08:55:11.808Z,98083.41
2024-01-07T08:56:13.729Z,98065.06
2024-01-07T08:57:15.201Z,98096.56
2024-01-07T08:58:17.053Z,98082.34
2024-01-07T08:59:18.625Z,98077.81
2024-01-07T09:00:20.528Z,98081.97
2024-01-07T09:01:22.233Z,98087.50
2024-01-07T09:02:23.833Z,98081.72
2024-01-07T09:03:25.336Z,98091.44
2024-01-07T09:04:26.921Z,98098.22
2024-01-07T09:05:28.533Z,98095.91
2024-01-07T09:06:30.123Z,98095.13
2024-01-07T09:07:31.815Z,98100.03
2024-01-07T09:08:33.830Z,98104.16
2024-01-07T09:09:35.499Z,98107.06
2024-01-07T09:10:37.067Z,98107.44
2024-01-07T09:11:38.645Z,98110.94
2024-01-07T09:12:40.974Z,98109.50
2024-01-07T09:13:44.472Z,98101.47
2024-01-07T09:14:46.216Z,98116.91
2024-01-07T09:15:48.235Z,98112.75
2024-01-07T09:16:49.825Z,98106.97
2024-01-07T09:17:51.414Z,98107.44
2024-01-07T09:18:53.147Z,98113.59
2024-01-07T09:19:54.805Z,98098.94
2024-01-07T09:20:56.389Z,98118.94
2024-01-07T09:21:57.960Z,98110.91
2024-01-07T09:22:59.492Z,98114.03
2024-01-07T09:24:01.557Z,98121.03
2024-01-07T09:25:07.523Z,98119.28
2024-01-07T09:26:09.168Z,98123.19
2024-01-07T09:27:10.696Z,98130.44
2024-01-07T09:28:12.248Z,98129.47
2024-01-07T09:29:14.979Z,98129.72
2024-01-07T09:30:16.794Z,98127.00
2024-01-07T09:31:18.739Z,98125.78
2024-01-07T09:32:20.396Z,98138.97
2024-01-07T09:33:24.608Z,98143.47
2024-01-07T09:34:26.488Z,98138.53
2024-01-07T09:35:28.100Z,98144.44
2024-01-07T09:36:30.862Z,98143.78
2024-01-07T09:37:32.914Z,98132.25
2024-01-07T09:38:34.761Z,98150.44
2024-01-07T09:39:41.176Z,98156.41
2024-01-07T09:40:42.819Z,98128.59
2024-01-07T09:41:44.317Z,98156.28
2024-01-07T09:42:46.099Z,98148.09
2024-01-07T09:43:47.730Z,98140.69
2024-01-07T09:44:50.284Z,98156.81
2024-01-07T09:45:53.149Z,98148.97
2024-01-07T09:46:55.221Z,98160.25
2024-01-07T09:47:57.042Z,98155.53
2024-01-07T09:48:58.801Z,98155.47
2024-01-07T09:50:00.736Z,98147.25
2024-01-07T09:51:02.360Z,98152.41
2024-01-07T09:52:05.525Z,98143.38
2024-01-07T09:53:08.284Z,98145.66
2024-01-07T09:54:12.429Z,98158.91
2024-01-07T09:55:23.894Z,98166.38
2024-01-07T09:56:34.130Z,98149.91
2024-01-07T09:57:35.834Z,98147.66
2024-01-07T09:58:37.885Z,98155.72
2024-01-07T09:59:40.282Z,98134.69
2024-01-07T10:00:41.932Z,98154.06
2024-01-07T10:01:44.918Z,98152.75
2024-01-07T10:02:46.812Z,98156.44
2024-01-07T10:03:48.979Z,98155.91
2024-01-07T10:04:51.300Z,98159.56
2024-01-07T10:05:53.468Z,98163.94
2024-01-07T10:06:55.390Z,98153.44
2024-01-07T10:07:58.317Z,98162.72
2024-01-07T10:09:00.764Z,98168.09
2024-01-07T10:10:14.332Z,98162.94
2024-01-07T10:11:16.772Z,98171.03
2024-01-07T10:12:18.297Z,98156.19
2024-01-07T10:13:21.154Z,98165.47
2024-01-07T10:14:23.529Z,98169.75
2024-01-07T10:15:25.228Z,98168.53
2024-01-07T10:16:26.827Z,98167.06
2024-01-07T10:17:29.430Z,98173.25
2024-01-07T10:18:32.598Z,98168.59
2024-01-07T10:19:36.907Z,98162.66
2024-01-07T10:20:41.772Z,98155.69
2024-01-07T10:21:44.862Z,98166.44
2024-01-07T10:22:53.124Z,98164.66
2024-01-07T10:24:10.381Z,98164.84
2024-01-07T10:25:12.348Z,98170.03
2024-01-07T10:26:23.334Z,98159.09
2024-01-07T10:27:29.148Z,98167.78
2024-01-07T10:28:30.669Z,98177.69
2024-01-07T10:29:32.689Z,98170.31
2024-01-07T10:30:34.387Z,98173.56
2024-01-07T10:31:40.757Z,98182.16
2024-01-07T10:32:44.388Z,98181.25
2024-01-07T10:33:46.118Z,98175.72
2024-01-07T10:34:51.385Z,98182.16
2024-01-07T10:35:56.891Z,98184.94
2024-01-07T10:37:00.770Z,98179.91
2024-01-07T10:38:02.933Z,98185.72
2024-01-07T10:39:04.874Z,98171.34
2024-01-07T10:40:08.419Z,98164.38
2024-01-07T10:41:12.632Z,98180.75
2024-01-07T10:42:14.713Z,98178.66
2024-01-07T10:43:17.812Z,98171.00
2024-01-07T10:44:20.485Z,98180.38
2024-01-07T10:45:22.568Z,98172.16
2024-01-07T10:46:28.019Z,98181.44
2024-01-07T10:47:32.341Z,98181.50
2024-01-07T10:48:38.199Z,98175.88
2024-01-07T10:49:42.145Z,98201.91
2024-01-07T10:50:46.380Z,98185.81
2024-01-07T10:52:12.447Z,98188.84
2024-01-07T10:53:22.248Z,98194.91
2024-01-07T10:54:25.556Z,98196.44
2024-01-07T10:55:27.581Z,98194.34
2024-01-07T10:56:41.747Z,98193.00
2024-01-07T10:57:48.247Z,98194.94
2024-01-07T10:58:55.675Z,98195.28
2024-01-07T10:59:57.443Z,98183.16
2024-01-07T11:01:01.329Z,98184.44
2024-01-07T11:02:05.267Z,98176.88
2024-01-07T11:03:20.261Z,98177.81
2024-01-07T11:04:48.958Z,98186.28
2024-01-07T11:05:58.053Z,98189.56
2024-01-07T11:07:12.340Z,98193.19
2024-01-07T11:08:20.790Z,98185.25
2024-01-07T11:09:27.900Z,98176.91
2024-01-07T11:10:49.157Z,98186.50
2024-01-07T11:11:54.949Z,98196.97
2024-01-07T11:12:56.683Z,98169.16
2024-01-07T11:14:00.306Z,98184.00
2024-01-07T11:15:03.003Z,98191.00
2024-01-07T11:16:12.711Z,98194.53
2024-01-07T11:17:16.993Z,98195.19
2024-01-07T11:18:30.971Z,98190.00
2024-01-07T11:19:32.799Z,98196.50
2024-01-07T11:20:34.991Z,98189.06
2024-01-07T11:21:36.609Z,98192.03
2024-01-07T11:22:38.127Z,98192.63
2024-01-07T11:23:48.767Z,98202.31
2024-01-07T11:24:50.933Z,98187.78
2024-01-07T11:25:52.553Z,98192.00
2024-01-07T11:26:54.915Z,98193.69
2024-01-07T11:27:58.230Z,98191.19
2024-01-07T11:29:01.505Z,98195.34
2024-01-07T11:30:07.916Z,98194.88
2024-01-07T11:31:10.110Z,98195.47
2024-01-07T11:32:15.547Z,98166.53
2024-01-07T11:33:17.329Z,98190.00
2024-01-07T11:34:53.453Z,98191.81
2024-01-07T11:36:01.224Z,98194.16
2024-01-07T11:37:03.058Z,98179.59
2024-01-07T11:38:04.572Z,98205.00
2024-01-07T11:39:10.310Z,98172.97
2024-01-07T11:40:12.749Z,98196.75
2024-01-07T11:41:15.511Z,98195.13
2024-01-07T11:42:17.009Z,98204.00
2024-01-07T11:43:19.779Z,98202.25
2024-01-07T11:44:21.324Z,98189.38
2024-01-07T11:45:23.254Z,98205.53
2024-01-07T11:46:24.971Z,98197.78
2024-01-07T11:47:29.539Z,98208.84
2024-01-07T11:48:31.259Z,98192.16
2024-01-07T11:49:34.173Z,98198.13
2024-01-07T11:50:36.634Z,98207.63
2024-01-07T11:51:38.967Z,98196.41
2024-01-07T11:52:40.611Z,98210.72
2024-01-07T11:53:42.233Z,98208.13
2024-01-07T11:54:43.934Z,98196.59
2024-01-07T11:55:46.317Z,98202.44
2024-01-07T11:56:47.889Z,98206.66
2024-01-07T11:57:49.464Z,98197.38
2024-01-07T11:58:51.315Z,98206.72
2024-01-07T11:59:52.797Z,98207.78
2024-01-07T12:00:54.370Z,98209.25
2024-01-07T12:01:56.393Z,98193.75
2024-01-07T12:02:57.996Z,98201.78
2024-01-07T12:03:59.641Z,98202.31
2024-01-07T12:05:01.865Z,98195.69
2024-01-07T12:06:05.197Z,98209.94
2024-01-07T12:07:07.408Z,98213.00
2024-01-07T12:08:09.007Z,98208.97
2024-01-07T12:09:13.559Z,98216.81
2024-01-07T12:10:16.375Z,98181.06
2024-01-07T12:11:19.848Z,98184.44
2024-01-07T12:12:21.399Z,98209.50
2024-01-07T12:13:23.389Z,98210.38